createdAt,value
2018-05-27T03:01:59.180Z,89.87
2018-05-27T03:02:59.303Z,89.87
2018-05-27T03:03:59.406Z,89.87
2018-05-27T03:04:59.542Z,89.68
2018-05-27T03:05:59.709Z,89.97
2018-05-27T03:06:59.928Z,89.44
2018-05-27T03:08:00.021Z,89.25
2018-05-27T03:09:00.303Z,89.44
2018-05-27T03:10:00.469Z,89.15
2018-05-27T03:11:00.569Z,88.96
2018-05-27T03:12:00.731Z,89.15
2018-05-27T03:13:00.868Z,89.06
2018-05-27T03:14:01.068Z,89.15
2018-05-27T03:15:01.291Z,88.96
2018-05-27T03:16:01.497Z,88.29
2018-05-27T03:17:01.571Z,88.96
2018-05-27T03:18:01.841Z,88.87
2018-05-27T03:19:02.025Z,88.92
2018-05-27T03:20:02.115Z,88.63
2018-05-27T03:21:02.265Z,88.44
2018-05-27T03:22:02.458Z,88.54
2018-05-27T03:23:02.599Z,88.44
2018-05-27T03:24:02.835Z,89.20
2018-05-27T03:25:03.084Z,89.30
2018-05-27T03:26:03.196Z,89.49
2018-05-27T03:27:03.357Z,89.97
2018-05-27T03:28:03.549Z,89.78
2018-05-27T03:29:03.632Z,89.87
2018-05-27T03:30:03.919Z,89.87
2018-05-27T03:31:04.078Z,90.16
2018-05-27T03:32:04.304Z,89.87
2018-05-27T03:33:04.419Z,90.54
2018-05-27T03:34:04.556Z,90.45
2018-05-27T03:35:04.732Z,90.16
2018-05-27T03:36:04.841Z,90.35
2018-05-27T03:37:05.077Z,90.64
2018-05-27T03:38:05.147Z,90.45
2018-05-27T03:39:05.393Z,90.64
2018-05-27T03:40:05.525Z,90.64
2018-05-27T03:41:05.748Z,89.78
2018-05-27T03:42:05.865Z,90.16
2018-05-27T03:43:06.016Z,90.06
2018-05-27T03:44:06.165Z,90.16
2018-05-27T03:45:06.393Z,90.16
2018-05-27T03:46:06.591Z,90.06
2018-05-27T03:47:06.716Z,90.16
2018-05-27T03:48:06.863Z,89.87
2018-05-27T03:49:07.069Z,89.97
2018-05-27T03:50:07.217Z,89.49
2018-05-27T03:51:07.384Z,89.20
2018-05-27T03:52:07.503Z,89.30
2018-05-27T03:53:07.693Z,89.20
2018-05-27T03:54:07.908Z,89.68
2018-05-27T03:55:08.042Z,89.20
2018-05-27T03:56:08.209Z,89.30
2018-05-27T03:57:08.323Z,90.06
2018-05-27T03:58:08.510Z,89.59
2018-05-27T03:59:08.691Z,89.87
2018-05-27T04:00:08.948Z,89.97
2018-05-27T04:01:09.083Z,90.06
2018-05-27T04:02:09.265Z,90.06
2018-05-27T04:03:09.417Z,90.35
2018-05-27T04:04:09.606Z,89.87
2018-05-27T04:05:09.706Z,89.78
2018-05-27T04:06:09.934Z,90.16
2018-05-27T04:07:10.108Z,90.25
2018-05-27T04:08:10.218Z,90.16
2018-05-27T04:09:10.365Z,90.11
2018-05-27T04:10:10.554Z,89.78
2018-05-27T04:11:10.803Z,89.78
2018-05-27T04:12:10.986Z,89.68
2018-05-27T04:13:11.101Z,89.73
2018-05-27T04:14:11.270Z,89.20
2018-05-27T04:15:11.496Z,89.97
2018-05-27T04:16:11.628Z,89.39
2018-05-27T04:17:11.769Z,89.68
2018-05-27T04:18:12.004Z,88.92
2018-05-27T04:19:12.153Z,88.96
2018-05-27T04:20:12.324Z,89.53
2018-05-27T04:21:12.497Z,89.25
2018-05-27T04:22:12.659Z,89.34
2018-05-27T04:23:12.781Z,89.53
2018-05-27T04:24:12.938Z,89.53
2018-05-27T04:25:13.114Z,89.73
2018-05-27T04:26:13.260Z,89.63
2018-05-27T04:27:13.474Z,89.06
2018-05-27T04:28:13.538Z,88.96
2018-05-27T04:29:13.700Z,89.34
2018-05-27T04:30:13.905Z,88.77
2018-05-27T04:31:14.161Z,88.10
2018-05-27T04:32:14.268Z,88.96
2018-05-27T04:33:14.496Z,88.48
2018-05-27T04:34:14.630Z,87.82
2018-05-27T04:35:14.796Z,88.01
2018-05-27T04:36:15.043Z,88.05
2018-05-27T04:37:15.225Z,88.53
2018-05-27T04:38:15.398Z,88.15
2018-05-27T04:39:15.606Z,88.24
2018-05-27T04:40:15.747Z,88.43
2018-05-27T04:41:15.912Z,87.95
2018-05-27T04:42:16.028Z,87.95
2018-05-27T04:43:16.251Z,87.76
2018-05-27T04:44:16.429Z,87.57
2018-05-27T04:45:16.514Z,87.76
2018-05-27T04:46:16.724Z,87.48
2018-05-27T04:47:16.864Z,86.71
2018-05-27T04:48:17.073Z,87.48
2018-05-27T04:49:17.308Z,87.09
2018-05-27T04:50:17.391Z,86.61
2018-05-27T04:51:17.631Z,88.15
2018-05-27T04:52:17.794Z,87.86
2018-05-27T04:53:17.955Z,87.19
2018-05-27T04:54:18.934Z,87.09
2018-05-27T04:55:18.203Z,87.66
2018-05-27T04:56:18.434Z,87.38
2018-05-27T04:57:18.690Z,87.29
2018-05-27T04:58:18.826Z,87.29
2018-05-27T04:59:18.878Z,87.66
2018-05-27T05:00:19.069Z,86.71
2018-05-27T05:01:19.266Z,87.09
2018-05-27T05:02:19.407Z,86.43
2018-05-27T05:03:19.511Z,86.61
2018-05-27T05:04:19.809Z,87.71
2018-05-27T05:05:19.925Z,87.48
2018-05-27T05:06:20.118Z,87.00
2018-05-27T05:07:20.260Z,87.29
2018-05-27T05:08:20.468Z,87.48
2018-05-27T05:09:20.558Z,87.43
2018-05-27T05:10:20.869Z,87.52
2018-05-27T05:11:20.977Z,87.62
2018-05-27T05:12:21.113Z,87.81
2018-05-27T05:13:21.264Z,87.23
2018-05-27T05:14:21.377Z,87.71
2018-05-27T05:15:21.571Z,86.57
2018-05-27T05:16:21.798Z,86.28
2018-05-27T05:17:21.983Z,86.76
2018-05-27T05:18:22.148Z,85.71
2018-05-27T05:19:22.281Z,85.71
2018-05-27T05:20:22.484Z,86.13
2018-05-27T05:21:22.639Z,85.65
2018-05-27T05:22:22.776Z,85.46
2018-05-27T05:23:23.017Z,85.27
2018-05-27T05:24:23.152Z,84.88
2018-05-27T05:25:23.356Z,84.92
2018-05-27T05:26:23.455Z,85.12
2018-05-27T05:27:23.620Z,85.21
2018-05-27T05:28:23.924Z,84.83
2018-05-27T05:29:24.005Z,85.21
2018-05-27T05:30:24.169Z,85.60
2018-05-27T05:31:24.318Z,85.16
2018-05-27T05:32:24.550Z,85.25
2018-05-27T05:33:24.759Z,85.54
2018-05-27T05:34:24.779Z,84.68
2018-05-27T05:35:24.948Z,83.72
2018-05-27T05:36:25.178Z,83.72
2018-05-27T05:37:25.346Z,84.01
2018-05-27T05:38:25.525Z,84.05
2018-05-27T05:39:25.687Z,84.34
2018-05-27T05:40:25.784Z,84.63
2018-05-27T05:41:26.006Z,84.34
2018-05-27T05:42:26.158Z,83.76
2018-05-27T05:43:26.315Z,84.00
2018-05-27T05:44:26.517Z,83.23
2018-05-27T05:45:26.625Z,82.94
2018-05-27T05:46:26.853Z,82.08
2018-05-27T05:47:27.101Z,82.21
2018-05-27T05:48:27.199Z,82.60
2018-05-27T05:49:27.443Z,82.98
2018-05-27T05:50:27.460Z,82.31
2018-05-27T05:51:27.670Z,82.41
2018-05-27T05:52:27.813Z,82.51
2018-05-27T05:53:28.011Z,81.93
2018-05-27T05:54:28.133Z,82.31
2018-05-27T05:55:28.358Z,81.45
2018-05-27T05:56:28.578Z,81.16
2018-05-27T05:57:28.707Z,81.16
2018-05-27T05:58:28.831Z,80.40
2018-05-27T05:59:28.996Z,80.30
2018-05-27T06:00:29.200Z,80.58
2018-05-27T06:01:29.374Z,80.68
2018-05-27T06:02:29.520Z,80.58
2018-05-27T06:03:29.743Z,81.16
2018-05-27T06:04:29.944Z,80.53
2018-05-27T06:05:30.076Z,79.72
2018-05-27T06:06:30.276Z,80.53
2018-05-27T06:07:30.521Z,80.91
2018-05-27T06:08:30.598Z,81.20
2018-05-27T06:09:31.022Z,81.10
2018-05-27T06:10:30.935Z,81.49
2018-05-27T06:11:31.090Z,81.30
2018-05-27T06:12:31.272Z,81.01
2018-05-27T06:13:31.461Z,80.24
2018-05-27T06:14:31.636Z,80.73
2018-05-27T06:15:31.803Z,81.10
2018-05-27T06:16:31.965Z,80.86
2018-05-27T06:17:32.154Z,80.38
2018-05-27T06:18:32.362Z,80.09
2018-05-27T06:19:32.518Z,80.66
2018-05-27T06:20:32.738Z,79.84
2018-05-27T06:21:32.828Z,80.38
2018-05-27T06:22:32.967Z,80.51
2018-05-27T06:23:33.160Z,79.65
2018-05-27T06:24:33.327Z,80.04
2018-05-27T06:25:33.561Z,79.55
2018-05-27T06:26:33.696Z,78.98
2018-05-27T06:27:33.893Z,79.75
2018-05-27T06:28:34.074Z,80.13
2018-05-27T06:29:34.286Z,79.94
2018-05-27T06:30:34.437Z,80.46
2018-05-27T06:31:34.564Z,79.60
2018-05-27T06:32:34.742Z,80.65
2018-05-27T06:33:34.981Z,79.21
2018-05-27T06:34:35.079Z,79.35
2018-05-27T06:35:35.206Z,78.77
2018-05-27T06:36:35.421Z,78.77
2018-05-27T06:37:35.559Z,76.56
2018-05-27T06:38:35.781Z,76.75
2018-05-27T06:39:35.973Z,75.24
2018-05-27T06:40:36.134Z,73.61
2018-05-27T06:41:36.317Z,73.61
2018-05-27T06:42:36.430Z,73.26
2018-05-27T06:43:36.597Z,72.68
2018-05-27T06:44:36.864Z,71.62
2018-05-27T06:45:37.003Z,70.89
2018-05-27T06:46:37.180Z,71.28
2018-05-27T06:47:37.314Z,70.89
2018-05-27T06:48:37.558Z,71.18
2018-05-27T06:49:37.697Z,70.50
2018-05-27T06:50:37.955Z,69.93
2018-05-27T06:51:38.065Z,69.48
2018-05-27T06:52:38.256Z,68.52
2018-05-27T06:53:38.443Z,68.42
2018-05-27T06:54:38.578Z,69.38
2018-05-27T06:55:38.764Z,69.19
2018-05-27T06:56:38.883Z,69.77
2018-05-27T06:57:39.035Z,69.29
2018-05-27T06:58:39.232Z,69.29
2018-05-27T06:59:39.357Z,69.19
2018-05-27T07:00:39.535Z,69.29
2018-05-27T07:01:39.742Z,68.32
2018-05-27T07:02:39.910Z,68.52
2018-05-27T07:03:40.062Z,68.32
2018-05-27T07:04:40.286Z,68.71
2018-05-27T07:05:40.427Z,68.99
2018-05-27T07:06:40.525Z,69.48
2018-05-27T07:07:40.751Z,67.68
2018-05-27T07:08:40.860Z,66.82
2018-05-27T07:09:41.053Z,65.85
2018-05-27T07:10:41.171Z,66.91
2018-05-27T07:11:41.392Z,68.01
2018-05-27T07:12:41.502Z,65.98
2018-05-27T07:13:41.664Z,65.01
2018-05-27T07:14:41.873Z,66.56
2018-05-27T07:15:42.038Z,66.75
2018-05-27T07:16:42.202Z,66.78
2018-05-27T07:17:42.344Z,66.94
2018-05-27T07:18:42.536Z,65.63
2018-05-27T07:19:42.744Z,63.79
2018-05-27T07:20:42.860Z,63.40
2018-05-27T07:21:43.055Z,64.86
2018-05-27T07:22:43.236Z,63.73
2018-05-27T07:23:43.366Z,63.24
2018-05-27T07:24:43.573Z,63.82
2018-05-27T07:25:43.786Z,64.11
2018-05-27T07:26:43.909Z,63.92
2018-05-27T07:27:44.104Z,63.37
2018-05-27T07:28:44.263Z,64.24
2018-05-27T07:29:44.412Z,64.14
2018-05-27T07:30:44.580Z,63.89
2018-05-27T07:31:44.743Z,64.27
2018-05-27T07:32:44.895Z,62.15
2018-05-27T07:33:45.075Z,63.60
2018-05-27T07:34:45.236Z,63.63
2018-05-27T07:35:45.393Z,60.72
2018-05-27T07:36:45.600Z,60.24
2018-05-27T07:37:45.724Z,60.89
2018-05-27T07:38:45.937Z,60.60
2018-05-27T07:39:46.068Z,60.31
2018-05-27T07:40:46.281Z,60.60
2018-05-27T07:41:46.471Z,61.47
2018-05-27T07:42:46.672Z,60.02
2018-05-27T07:43:46.793Z,58.50
2018-05-27T07:44:46.914Z,59.28
2018-05-27T07:45:47.109Z,59.56
2018-05-27T07:46:47.293Z,58.44
2018-05-27T07:47:47.509Z,59.01
2018-05-27T07:48:47.625Z,56.30
2018-05-27T07:49:47.771Z,56.88
2018-05-27T07:50:47.989Z,58.82
2018-05-27T07:51:48.102Z,59.69
2018-05-27T07:52:48.274Z,56.60
2018-05-27T07:53:48.573Z,56.11
2018-05-27T07:54:48.641Z,56.40
2018-05-27T07:55:48.839Z,57.08
2018-05-27T07:56:48.977Z,58.07
2018-05-27T07:57:49.125Z,59.82
2018-05-27T07:58:49.337Z,57.20
2018-05-27T07:59:49.458Z,58.78
2018-05-27T08:00:49.640Z,58.88
2018-05-27T08:01:49.825Z,57.33
2018-05-27T08:02:50.012Z,55.58
2018-05-27T08:03:50.147Z,54.62
2018-05-27T08:04:50.297Z,56.68
2018-05-27T08:05:50.440Z,56.59
2018-05-27T08:06:50.676Z,55.26
2018-05-27T08:07:50.832Z,54.94
2018-05-27T08:08:50.978Z,54.26
2018-05-27T08:09:51.158Z,55.52
2018-05-27T08:10:51.321Z,55.52
2018-05-27T08:11:51.483Z,56.20
2018-05-27T08:12:51.738Z,54.94
2018-05-27T08:13:51.817Z,55.13
2018-05-27T08:14:52.011Z,55.52
2018-05-27T08:15:52.129Z,56.00
2018-05-27T08:16:52.334Z,55.32
2018-05-27T08:17:52.526Z,57.84
2018-05-27T08:18:52.703Z,54.23
2018-05-27T08:19:52.830Z,55.40
2018-05-27T08:20:52.987Z,55.40
2018-05-27T08:21:53.188Z,54.43
2018-05-27T08:22:53.342Z,54.26
2018-05-27T08:23:53.501Z,58.20
2018-05-27T08:24:53.750Z,58.39
2018-05-27T08:25:53.844Z,58.42
2018-05-27T08:26:54.084Z,55.78
2018-05-27T08:27:54.196Z,56.75
2018-05-27T08:28:54.438Z,55.58
2018-05-27T08:29:54.549Z,56.94
2018-05-27T08:30:54.717Z,57.55
2018-05-27T08:31:54.926Z,57.23
2018-05-27T08:32:55.046Z,55.90
2018-05-27T08:33:55.223Z,56.49
2018-05-27T08:34:55.428Z,58.42
2018-05-27T08:35:55.565Z,55.52
2018-05-27T08:36:55.760Z,55.32
2018-05-27T08:37:55.942Z,56.00
2018-05-27T08:38:56.068Z,56.20
2018-05-27T08:39:56.218Z,56.97
2018-05-27T08:40:56.397Z,58.42
2018-05-27T08:41:56.560Z,57.55
2018-05-27T08:42:56.704Z,55.52
2018-05-27T08:43:56.939Z,56.49
2018-05-27T08:44:57.056Z,56.39
2018-05-27T08:45:57.252Z,55.52
2018-05-27T08:46:57.427Z,56.77
2018-05-27T08:47:57.595Z,56.90
2018-05-27T08:48:57.774Z,55.42
2018-05-27T08:49:57.953Z,55.42
2018-05-27T08:50:58.097Z,55.42
2018-05-27T08:51:58.275Z,55.54
2018-05-27T08:52:58.427Z,56.51
2018-05-27T08:53:58.575Z,55.54
2018-05-27T08:54:58.822Z,54.67
2018-05-27T08:55:58.932Z,55.44
2018-05-27T08:56:59.135Z,56.90
2018-05-27T08:57:59.282Z,53.61
2018-05-27T08:58:59.565Z,53.92
2018-05-27T08:59:59.692Z,53.83
2018-05-27T09:00:59.861Z,54.63
2018-05-27T09:01:59.999Z,53.85
2018-05-27T09:03:00.214Z,54.05
2018-05-27T09:04:00.360Z,54.14
2018-05-27T09:05:00.487Z,54.72
2018-05-27T09:06:00.673Z,54.05
2018-05-27T09:07:00.856Z,53.05
2018-05-27T09:08:01.094Z,51.62
2018-05-27T09:09:01.241Z,52.59
2018-05-27T09:10:01.377Z,51.43
2018-05-27T09:11:01.542Z,51.14
2018-05-27T09:12:01.712Z,51.91
2018-05-27T09:13:01.890Z,51.65
2018-05-27T09:14:02.020Z,51.16
2018-05-27T09:15:02.220Z,51.35
2018-05-27T09:16:02.386Z,53.22
2018-05-27T09:17:02.583Z,53.54
2018-05-27T09:18:02.751Z,52.67
2018-05-27T09:19:02.939Z,51.60
2018-05-27T09:20:03.083Z,50.73
2018-05-27T09:21:03.292Z,50.34
2018-05-27T09:22:03.716Z,49.56
2018-05-27T09:23:03.657Z,50.92
2018-05-27T09:24:03.804Z,52.57
2018-05-27T09:25:04.021Z,50.31
2018-05-27T09:26:05.006Z,51.70
2018-05-27T09:27:04.291Z,51.50
2018-05-27T09:28:04.466Z,51.50
2018-05-27T09:29:04.635Z,49.66
2018-05-27T09:30:04.826Z,48.97
2018-05-27T09:31:04.989Z,49.76
2018-05-27T09:32:05.240Z,52.47
2018-05-27T09:33:05.365Z,50.85
2018-05-27T09:34:05.530Z,51.23
2018-05-27T09:35:05.792Z,49.49
2018-05-27T09:36:05.915Z,48.41
2018-05-27T09:37:06.103Z,49.41
2018-05-27T09:38:06.254Z,48.05
2018-05-27T09:39:06.422Z,47.98
2018-05-27T09:40:06.587Z,49.32
2018-05-27T09:41:06.769Z,48.44
2018-05-27T09:42:06.902Z,50.58
2018-05-27T09:43:07.205Z,49.99
2018-05-27T09:44:07.266Z,51.45
2018-05-27T09:45:07.493Z,50.09
2018-05-27T09:46:07.576Z,50.70
2018-05-27T09:47:07.721Z,48.85
2018-05-27T09:48:07.957Z,47.98
2018-05-27T09:49:08.133Z,47.49
2018-05-27T09:50:08.409Z,48.56
2018-05-27T09:51:08.744Z,47.49
2018-05-27T09:52:08.620Z,49.27
2018-05-27T09:53:08.974Z,47.71
2018-05-27T09:54:09.043Z,45.88
2018-05-27T09:55:09.208Z,46.37
2018-05-27T09:56:09.457Z,45.51
2018-05-27T09:57:09.584Z,46.51
2018-05-27T09:58:09.782Z,44.68
2018-05-27T09:59:09.842Z,43.61
2018-05-27T10:00:10.045Z,43.32
2018-05-27T10:01:10.273Z,43.61
2018-05-27T10:02:10.388Z,43.24
2018-05-27T10:03:10.731Z,43.24
2018-05-27T10:04:10.732Z,43.26
2018-05-27T10:05:11.429Z,43.96
2018-05-27T10:06:11.131Z,41.35
2018-05-27T10:07:11.363Z,39.78
2018-05-27T10:08:11.487Z,39.82
2018-05-27T10:09:11.669Z,40.21
2018-05-27T10:10:11.847Z,40.01
2018-05-27T10:11:11.988Z,40.50
2018-05-27T10:12:12.187Z,40.21
2018-05-27T10:13:12.374Z,38.84
2018-05-27T10:14:12.581Z,39.35
2018-05-27T10:15:12.746Z,38.18
2018-05-27T10:16:12.904Z,37.51
2018-05-27T10:17:13.128Z,37.41
2018-05-27T10:18:13.230Z,38.96
2018-05-27T10:19:13.435Z,36.98
2018-05-27T10:20:13.577Z,38.06
2018-05-27T10:21:13.814Z,37.49
2018-05-27T10:22:13.999Z,38.68
2018-05-27T10:23:14.117Z,39.19
2018-05-27T10:24:14.283Z,37.13
2018-05-27T10:25:14.460Z,37.45
2018-05-27T10:26:14.675Z,36.49
2018-05-27T10:27:14.833Z,37.19
2018-05-27T10:28:14.988Z,37.01
2018-05-27T10:29:15.147Z,34.97
2018-05-27T10:30:15.339Z,34.10
2018-05-27T10:31:15.533Z,34.59
2018-05-27T10:32:15.663Z,35.69
2018-05-27T10:33:15.835Z,35.69
2018-05-27T10:34:16.064Z,33.53
2018-05-27T10:35:16.189Z,32.34
2018-05-27T10:36:16.412Z,30.59
2018-05-27T10:37:16.558Z,30.98
2018-05-27T10:38:16.715Z,30.49
2018-05-27T10:39:16.959Z,30.79
2018-05-27T10:40:17.104Z,30.68
2018-05-27T10:41:17.294Z,32.26
2018-05-27T10:42:17.496Z,32.76
2018-05-27T10:43:17.629Z,32.15
2018-05-27T10:44:17.794Z,30.87
2018-05-27T10:45:18.035Z,31.85
2018-05-27T10:46:18.153Z,29.61
2018-05-27T10:47:18.311Z,31.56
2018-05-27T10:48:18.553Z,32.76
2018-05-27T10:49:18.646Z,32.26
2018-05-27T10:50:18.902Z,33.44
2018-05-27T10:51:19.057Z,30.28
2018-05-27T10:52:19.281Z,31.74
2018-05-27T10:53:19.366Z,34.49
2018-05-27T10:54:19.546Z,33.41
2018-05-27T10:55:19.775Z,32.34
2018-05-27T10:56:19.973Z,30.88
2018-05-27T10:57:20.105Z,30.68
2018-05-27T10:58:20.254Z,30.68
2018-05-27T10:59:20.419Z,31.45
2018-05-27T11:00:20.599Z,31.25
2018-05-27T11:01:20.791Z,33.41
2018-05-27T11:02:21.023Z,31.85
2018-05-27T11:03:21.209Z,31.48
2018-05-27T11:04:21.394Z,31.77
2018-05-27T11:05:21.563Z,31.00
2018-05-27T11:06:21.685Z,29.62
2018-05-27T11:07:22.307Z,30.02
2018-05-27T11:08:22.031Z,31.38
2018-05-27T11:09:22.169Z,30.88
2018-05-27T11:10:22.397Z,30.22
2018-05-27T11:11:22.618Z,28.56
2018-05-27T11:12:22.775Z,28.88
2018-05-27T11:13:22.944Z,28.78
2018-05-27T11:14:23.192Z,29.78
2018-05-27T11:15:23.385Z,29.88
2018-05-27T11:16:23.482Z,29.63
2018-05-27T11:17:23.736Z,30.32
2018-05-27T11:18:23.963Z,28.77
2018-05-27T11:19:24.098Z,30.82
2018-05-27T11:20:24.287Z,29.83
2018-05-27T11:21:24.434Z,30.03
2018-05-27T11:22:24.585Z,29.43
2018-05-27T11:23:24.726Z,30.51
2018-05-27T11:24:24.893Z,29.82
2018-05-27T11:25:25.131Z,30.13
2018-05-27T11:26:25.276Z,30.04
2018-05-27T11:27:25.485Z,29.35
2018-05-27T11:28:25.615Z,30.54
2018-05-27T11:29:25.817Z,31.13
2018-05-27T11:30:25.995Z,30.44
2018-05-27T11:31:26.164Z,29.65
2018-05-27T11:32:26.392Z,29.57
2018-05-27T11:33:26.583Z,29.57
2018-05-27T11:34:26.715Z,27.61
2018-05-27T11:35:26.916Z,27.61
2018-05-27T11:36:27.118Z,28.20
2018-05-27T11:37:27.254Z,29.37
2018-05-27T11:38:27.419Z,29.28
2018-05-27T11:39:27.603Z,28.56
2018-05-27T11:40:27.776Z,28.48
2018-05-27T11:41:27.901Z,30.35
2018-05-27T11:42:28.156Z,29.60
2018-05-27T11:43:28.301Z,29.32
2018-05-27T11:44:28.517Z,27.35
2018-05-27T11:45:28.740Z,26.07
2018-05-27T11:46:28.852Z,26.65
2018-05-27T11:47:29.146Z,27.45
2018-05-27T11:48:29.220Z,27.35
2018-05-27T11:49:29.464Z,27.25
2018-05-27T11:50:29.638Z,25.67
2018-05-27T11:51:29.747Z,25.16
2018-05-27T11:52:29.920Z,26.25
2018-05-27T11:53:30.206Z,26.45
2018-05-27T11:54:30.332Z,26.86
2018-05-27T11:55:30.477Z,28.52
2018-05-27T11:56:30.647Z,27.34
2018-05-27T11:57:30.868Z,28.53
2018-05-27T11:58:31.067Z,27.83
2018-05-27T11:59:31.193Z,26.76
2018-05-27T12:00:31.526Z,26.67
2018-05-27T12:01:31.592Z,27.18
2018-05-27T12:02:31.731Z,27.87
2018-05-27T12:03:31.933Z,27.39
2018-05-27T12:04:32.092Z,25.59
2018-05-27T12:05:32.318Z,26.39
2018-05-27T12:06:32.431Z,23.82
2018-05-27T12:07:32.677Z,27.36
2018-05-27T12:08:32.792Z,26.78
2018-05-27T12:09:33.176Z,26.40
2018-05-27T12:10:33.209Z,27.38
2018-05-27T12:11:33.424Z,26.07
2018-05-27T12:12:33.523Z,26.82
2018-05-27T12:13:33.779Z,26.42
2018-05-27T12:14:33.890Z,27.10
2018-05-27T12:15:34.059Z,27.89
2018-05-27T12:16:34.248Z,28.09
2018-05-27T12:17:34.397Z,27.87
2018-05-27T12:18:34.581Z,27.28
2018-05-27T12:19:34.808Z,26.90
2018-05-27T12:20:34.953Z,26.54
2018-05-27T12:21:35.132Z,27.47
2018-05-27T12:22:35.339Z,28.82
2018-05-27T12:23:35.470Z,30.77
2018-05-27T12:24:35.732Z,32.81
2018-05-27T12:25:35.880Z,33.38
2018-05-27T12:26:36.062Z,31.07
2018-05-27T12:27:36.204Z,32.35
2018-05-27T12:28:36.347Z,32.68
2018-05-27T12:29:36.618Z,32.59
2018-05-27T12:30:36.763Z,31.64
2018-05-27T12:31:36.970Z,30.68
2018-05-27T12:32:37.071Z,28.45
2018-05-27T12:33:37.277Z,27.69
2018-05-27T12:34:37.505Z,28.59
2018-05-27T12:35:37.668Z,28.62
2018-05-27T12:36:37.868Z,28.55
2018-05-27T12:37:37.977Z,26.18
2018-05-27T12:38:38.146Z,26.84
2018-05-27T12:39:38.387Z,26.54
2018-05-27T12:40:38.513Z,26.61
2018-05-27T12:41:38.724Z,27.86
2018-05-27T12:42:38.920Z,29.63
2018-05-27T12:43:39.085Z,27.89
2018-05-27T12:44:39.240Z,27.78
2018-05-27T12:45:39.416Z,27.95
2018-05-27T12:46:39.560Z,29.09
2018-05-27T12:47:39.772Z,31.30
2018-05-27T12:48:40.008Z,33.33
2018-05-27T12:49:40.113Z,34.38
2018-05-27T12:50:40.376Z,36.51
2018-05-27T12:51:40.513Z,35.04
2018-05-27T12:52:40.690Z,37.49
2018-05-27T12:53:40.792Z,36.76
2018-05-27T12:54:40.985Z,34.01
2018-05-27T12:55:41.170Z,33.58
2018-05-27T12:56:41.410Z,32.79
2018-05-27T12:57:41.548Z,33.94
2018-05-27T12:58:41.732Z,33.92
2018-05-27T12:59:41.859Z,33.79
2018-05-27T13:00:42.123Z,34.06
2018-05-27T13:01:42.285Z,35.52
2018-05-27T13:02:42.372Z,37.26
2018-05-27T13:03:42.559Z,38.82
2018-05-27T13:04:42.775Z,38.12
2018-05-27T13:05:43.002Z,39.10
2018-05-27T13:06:43.099Z,39.28
2018-05-27T13:07:43.332Z,41.23
2018-05-27T13:08:43.457Z,41.56
2018-05-27T13:09:43.639Z,40.08
2018-05-27T13:10:43.849Z,36.99
2018-05-27T13:11:43.974Z,33.59
2018-05-27T13:12:44.171Z,31.16
2018-05-27T13:13:44.347Z,31.00
2018-05-27T13:14:44.565Z,28.08
2018-05-27T13:15:44.696Z,28.14
2018-05-27T13:16:44.959Z,29.20
2018-05-27T13:17:45.015Z,31.64
2018-05-27T13:18:45.225Z,32.65
2018-05-27T13:19:45.390Z,31.38
2018-05-27T13:20:45.555Z,29.11
2018-05-27T13:21:45.791Z,30.68
2018-05-27T13:22:45.903Z,32.12
2018-05-27T13:23:46.114Z,33.85
2018-05-27T13:24:46.320Z,34.21
2018-05-27T13:25:46.456Z,35.39
2018-05-27T13:26:46.616Z,33.80
2018-05-27T13:27:46.873Z,33.79
2018-05-27T13:28:47.005Z,33.98
2018-05-27T13:29:47.197Z,35.55
2018-05-27T13:30:47.349Z,35.06
2018-05-27T13:31:47.556Z,35.93
2018-05-27T13:32:47.687Z,36.30
2018-05-27T13:33:47.874Z,36.69
2018-05-27T13:34:48.070Z,37.27
2018-05-27T13:35:48.275Z,36.57
2018-05-27T13:36:48.438Z,37.16
2018-05-27T13:37:48.564Z,37.75
2018-05-27T13:38:48.747Z,37.14
2018-05-27T13:39:48.894Z,37.14
2018-05-27T13:40:49.189Z,38.32
2018-05-27T13:41:49.237Z,39.29
2018-05-27T13:42:49.430Z,39.69
2018-05-27T13:43:49.586Z,39.00
2018-05-27T13:44:49.875Z,39.39
2018-05-27T13:45:49.925Z,39.69
2018-05-27T13:46:50.204Z,39.59
2018-05-27T13:47:50.387Z,39.20
2018-05-27T13:48:50.452Z,39.70
2018-05-27T13:49:50.638Z,38.82
2018-05-27T13:50:50.797Z,40.48
2018-05-27T13:51:51.001Z,42.36
2018-05-27T13:52:51.199Z,42.68
2018-05-27T13:53:51.372Z,43.15
2018-05-27T13:54:51.517Z,44.91
2018-05-27T13:55:51.659Z,42.85
2018-05-27T13:56:51.860Z,38.14
2018-05-27T13:57:52.030Z,38.34
2018-05-27T13:58:52.199Z,38.43
2018-05-27T13:59:52.486Z,39.51
2018-05-27T14:00:52.520Z,40.29
2018-05-27T14:01:52.732Z,40.78
2018-05-27T14:02:52.918Z,39.80
2018-05-27T14:03:53.026Z,36.87
2018-05-27T14:04:53.228Z,39.51
2018-05-27T14:05:53.369Z,40.29
2018-05-27T14:06:53.536Z,39.02
2018-05-27T14:07:53.787Z,39.78
2018-05-27T14:08:53.962Z,41.56
2018-05-27T14:09:54.166Z,38.63
2018-05-27T14:10:54.298Z,39.82
2018-05-27T14:11:54.456Z,38.45
2018-05-27T14:12:54.659Z,38.75
2018-05-27T14:13:54.820Z,38.57
2018-05-27T14:14:54.973Z,38.75
2018-05-27T14:15:55.230Z,37.96
2018-05-27T14:16:55.501Z,34.26
2018-05-27T14:17:55.564Z,35.63
2018-05-27T14:18:55.695Z,35.85
2018-05-27T14:19:55.815Z,36.33
2018-05-27T14:20:56.017Z,37.21
2018-05-27T14:21:56.169Z,36.92
2018-05-27T14:22:56.415Z,37.10
2018-05-27T14:23:56.591Z,35.45
2018-05-27T14:24:56.750Z,33.98
2018-05-27T14:25:56.989Z,36.04
2018-05-27T14:26:57.086Z,37.41
2018-05-27T14:27:57.270Z,37.12
2018-05-27T14:28:57.497Z,38.78
2018-05-27T14:29:57.674Z,38.98
2018-05-27T14:30:57.762Z,37.10
2018-05-27T14:31:57.941Z,38.57
2018-05-27T14:32:58.095Z,40.14
2018-05-27T14:33:58.385Z,38.47
2018-05-27T14:34:58.467Z,39.84
2018-05-27T14:35:58.578Z,39.45
2018-05-27T14:36:58.803Z,40.43
2018-05-27T14:37:58.909Z,40.53
2018-05-27T14:38:59.105Z,40.43
2018-05-27T14:39:59.316Z,41.21
2018-05-27T14:40:59.478Z,40.11
2018-05-27T14:41:59.673Z,40.50
2018-05-27T14:42:59.831Z,40.97
2018-05-27T14:43:59.942Z,41.44
2018-05-27T14:45:00.212Z,43.20
2018-05-27T14:46:00.388Z,43.40
2018-05-27T14:47:00.541Z,44.45
2018-05-27T14:48:00.760Z,44.53
2018-05-27T14:49:00.825Z,44.73
2018-05-27T14:50:00.999Z,43.65
2018-05-27T14:51:01.220Z,45.68
2018-05-27T14:52:01.420Z,46.75
2018-05-27T14:53:01.604Z,47.73
2018-05-27T14:54:01.678Z,47.00
2018-05-27T14:55:01.870Z,48.17
2018-05-27T14:56:02.086Z,46.51
2018-05-27T14:57:02.255Z,46.41
2018-05-27T14:58:02.423Z,46.59
2018-05-27T14:59:02.570Z,47.75
2018-05-27T15:00:02.822Z,48.71
2018-05-27T15:01:02.926Z,49.49
2018-05-27T15:02:03.061Z,50.63
2018-05-27T15:03:03.264Z,51.41
2018-05-27T15:04:03.521Z,50.14
2018-05-27T15:05:03.669Z,51.31
2018-05-27T15:06:03.920Z,52.36
2018-05-27T15:07:03.984Z,51.67
2018-05-27T15:08:04.120Z,52.43
2018-05-27T15:09:04.477Z,53.40
2018-05-27T15:10:04.437Z,52.92
2018-05-27T15:11:04.717Z,52.98
2018-05-27T15:12:04.890Z,53.74
2018-05-27T15:13:04.888Z,53.64
2018-05-27T15:14:05.076Z,53.93
2018-05-27T15:15:05.271Z,54.71
2018-05-27T15:16:05.432Z,53.93
2018-05-27T15:17:05.754Z,54.22
2018-05-27T15:18:05.933Z,54.00
2018-05-27T15:19:06.124Z,53.91
2018-05-27T15:20:06.330Z,54.85
2018-05-27T15:21:06.768Z,54.85
2018-05-27T15:22:06.619Z,53.49
2018-05-27T15:23:06.790Z,54.66
2018-05-27T15:24:07.038Z,52.69
2018-05-27T15:25:08.482Z,52.69
2018-05-27T15:26:07.306Z,52.69
2018-05-27T15:27:07.572Z,53.95
2018-05-27T15:28:07.658Z,54.70
2018-05-27T15:29:07.893Z,54.72
2018-05-27T15:30:08.424Z,55.41
2018-05-27T15:31:08.235Z,54.34
2018-05-27T15:32:08.524Z,53.88
2018-05-27T15:33:08.621Z,51.75
2018-05-27T15:34:08.791Z,49.24
2018-05-27T15:35:08.965Z,49.07
2018-05-27T15:36:09.152Z,47.93
2018-05-27T15:37:09.320Z,47.66
2018-05-27T15:38:09.515Z,46.50
2018-05-27T15:39:09.689Z,47.69
2018-05-27T15:40:09.926Z,47.39
2018-05-27T15:41:10.032Z,47.49
2018-05-27T15:42:10.344Z,51.55
2018-05-27T15:43:10.695Z,56.20
2018-05-27T15:44:11.249Z,57.96
2018-05-27T15:45:10.852Z,60.42
2018-05-27T15:46:10.997Z,62.91
2018-05-27T15:47:11.138Z,62.10
2018-05-27T15:48:11.521Z,63.62
2018-05-27T15:49:11.651Z,66.50
2018-05-27T15:50:11.741Z,66.02
2018-05-27T15:51:11.949Z,66.30
2018-05-27T15:52:12.259Z,69.59
2018-05-27T15:53:13.108Z,70.21
2018-05-27T15:54:12.404Z,67.11
2018-05-27T15:55:12.651Z,67.14
2018-05-27T15:56:12.742Z,64.62